Time;durP1;ratioP1;P1;durP2;ratioP2;P2;SDS_P1;SDS_P2;PMS_P1;PMS_P2;Temp;Humidity;BMP_temperature;BMP_pressure;BME280_temperature;BME280_humidity;BME280_pressure;Samples;Min_cycle;Max_cycle;Signal;HPM_P1;HPM_P2
2021/12/30 00:01:25;;;;;;;123.20;50.00;;;;;;;2.90;100.00;98761.38;8494414;27;20063;-76
2021/12/30 00:05:26;;;;;;;150.20;56.58;;;;;;;2.92;100.00;98762.69;8498743;27;20482;-75
2021/12/30 00:09:28;;;;;;;140.00;55.15;;;;;;;2.92;100.00;98761.88;8420760;27;20063;-75
2021/12/30 00:13:29;;;;;;;127.07;47.78;;;;;;;2.90;100.00;98764.03;8483062;27;20054;-76
2021/12/30 00:17:30;;;;;;;130.23;50.40;;;;;;;2.91;100.00;98765.63;8482480;27;20043;-75
2021/12/30 00:21:31;;;;;;;126.93;47.25;;;;;;;2.92;100.00;98757.34;8487010;27;20126;-76
2021/12/30 00:25:38;;;;;;;103.00;41.45;;;;;;;2.92;100.00;98746.69;8485341;27;20047;-76
2021/12/30 00:29:38;;;;;;;100.40;37.38;;;;;;;2.95;100.00;98762.16;8489681;27;20518;-76
2021/12/30 00:33:39;;;;;;;100.75;41.63;;;;;;;3.02;100.00;98755.75;8485440;27;20093;-73
2021/12/30 00:37:40;;;;;;;103.43;40.25;;;;;;;3.08;100.00;98754.69;8494166;27;20141;-73
2021/12/30 00:41:41;;;;;;;106.78;42.80;;;;;;;3.10;100.00;98768.56;8494305;27;20059;-73
2021/12/30 00:45:42;;;;;;;117.07;46.25;;;;;;;3.05;100.00;98765.91;8493755;27;20040;-73
2021/12/30 00:49:43;;;;;;;156.75;59.03;;;;;;;2.86;100.00;98758.41;8489520;27;20133;-73
2021/12/30 00:53:44;;;;;;;169.40;62.92;;;;;;;2.69;100.00;98763.22;8476494;27;20063;-73
2021/12/30 00:57:45;;;;;;;164.25;63.08;;;;;;;2.61;100.00;98753.06;8485046;27;20088;-73
2021/12/30 01:01:46;;;;;;;171.57;63.53;;;;;;;2.56;100.00;98758.41;8491567;27;20063;-73
2021/12/30 01:05:47;;;;;;;169.85;62.95;;;;;;;2.48;100.00;98748.28;8484535;27;20087;-73
2021/12/30 01:09:47;;;;;;;170.90;62.58;;;;;;;2.39;100.00;98741.84;8493296;27;20126;-73
2021/12/30 01:13:57;;;;;;;162.88;61.38;;;;;;;2.44;100.00;98729.34;8492960;27;20047;-73
2021/12/30 01:18:21;;;;;;;169.60;64.85;;;;;;;2.48;100.00;98740.28;8483618;27;20035;-73
2021/12/30 01:22:25;;;;;;;159.88;59.95;;;;;;;2.53;100.00;98745.63;8488474;27;20056;-73
2021/12/30 01:26:26;;;;;;;171.63;64.68;;;;;;;2.53;100.00;98764.28;8472220;27;20048;-73
2021/12/30 01:30:27;;;;;;;173.20;65.43;;;;;;;2.49;100.00;98760.50;8487941;27;20093;-73
2021/12/30 01:34:28;;;;;;;180.23;67.68;;;;;;;2.53;100.00;98766.94;8471653;27;20135;-73
2021/12/30 01:38:29;;;;;;;161.90;61.25;;;;;;;2.52;100.00;98762.66;8459857;27;20410;-73
2021/12/30 01:42:32;;;;;;;166.65;61.58;;;;;;;2.43;100.00;98766.94;8495994;27;20104;-73
2021/12/30 01:46:38;;;;;;;178.73;62.83;;;;;;;2.41;100.00;98766.38;8487401;27;20047;-73
2021/12/30 01:50:40;;;;;;;143.07;55.95;;;;;;;2.41;100.00;98777.03;8487780;27;20059;-73
2021/12/30 01:54:41;;;;;;;139.13;55.60;;;;;;;2.42;100.00;98783.97;8488185;27;20518;-73
2021/12/30 01:58:42;;;;;;;149.00;55.55;;;;;;;2.44;100.00;98787.16;8494670;27;20046;-73
2021/12/30 02:02:43;;;;;;;152.23;58.28;;;;;;;2.32;100.00;98789.28;8488383;27;20490;-73
2021/12/30 02:06:43;;;;;;;164.52;60.72;;;;;;;2.28;100.00;98788.19;8467642;27;20062;-73
2021/12/30 02:10:46;;;;;;;164.82;59.60;;;;;;;2.29;100.00;98800.44;8472442;27;20501;-73
2021/12/30 02:14:47;;;;;;;175.95;59.90;;;;;;;2.23;100.00;98793.50;8486600;27;20047;-72
2021/12/30 02:18:49;;;;;;;159.70;57.00;;;;;;;2.25;100.00;98796.72;8469919;27;20101;-73
2021/12/30 02:22:50;;;;;;;166.38;55.75;;;;;;;2.24;100.00;98813.75;8479848;27;20046;-73
2021/12/30 02:26:52;;;;;;;196.50;52.50;;;;;;;2.28;100.00;98820.16;8485634;27;20114;-73
2021/12/30 02:30:54;;;;;;;186.32;54.28;;;;;;;2.37;100.00;98823.94;8494698;27;20043;-73
2021/12/30 02:34:55;;;;;;;142.40;47.58;;;;;;;2.39;100.00;98811.13;8485740;27;20051;-73
2021/12/30 02:38:56;;;;;;;119.15;43.28;;;;;;;2.32;100.00;98805.28;8493997;27;20133;-73
2021/12/30 02:42:57;;;;;;;114.28;38.35;;;;;;;2.36;100.00;98809.00;8478557;27;20043;-73
2021/12/30 02:46:58;;;;;;;97.35;38.35;;;;;;;2.36;100.00;98811.66;8442209;28;20432;-74
2021/12/30 02:51:03;;;;;;;98.68;35.72;;;;;;;2.44;100.00;98824.47;8478267;28;20055;-74
2021/12/30 02:55:05;;;;;;;91.15;34.70;;;;;;;2.47;100.00;98818.63;8470081;28;20107;-74
2021/12/30 02:59:06;;;;;;;99.40;37.85;;;;;;;2.49;100.00;98827.16;8485721;28;20486;-74
2021/12/30 03:03:06;;;;;;;110.47;39.08;;;;;;;2.51;100.00;98820.50;8485627;28;20131;-73
2021/12/30 03:07:07;;;;;;;93.35;36.38;;;;;;;2.57;100.00;98815.19;8485474;28;20039;-74
2021/12/30 03:11:09;;;;;;;106.07;37.65;;;;;;;2.55;100.00;98810.13;8485715;28;20562;-74
2021/12/30 03:15:13;;;;;;;94.47;37.25;;;;;;;2.57;100.00;98818.66;8495674;27;20047;-74
2021/12/30 03:19:14;;;;;;;89.45;36.13;;;;;;;2.60;100.00;98822.66;8447651;27;20043;-74
2021/12/30 03:23:16;;;;;;;85.38;33.85;;;;;;;2.58;100.00;98825.59;8492543;27;20045;-74
2021/12/30 03:27:16;;;;;;;80.00;31.48;;;;;;;2.58;100.00;98825.59;8474753;27;20486;-74
2021/12/30 03:31:19;;;;;;;66.63;28.52;;;;;;;2.60;100.00;98820.78;8483371;27;20047;-74
2021/12/30 03:35:20;;;;;;;64.60;28.38;;;;;;;2.53;100.00;98822.91;8486313;27;20112;-74
2021/12/30 03:39:21;;;;;;;70.22;29.75;;;;;;;2.50;100.00;98826.91;8493700;27;20035;-74
2021/12/30 03:43:21;;;;;;;77.68;29.98;;;;;;;2.49;100.00;98835.16;8491918;27;20039;-74
2021/12/30 03:47:23;;;;;;;75.32;29.95;;;;;;;2.49;100.00;98821.81;8483204;27;20043;-73
2021/12/30 03:51:25;;;;;;;62.00;28.50;;;;;;;2.49;100.00;98821.81;8471493;27;20035;-74
2021/12/30 03:55:28;;;;;;;64.35;27.30;;;;;;;2.51;100.00;98830.38;8483828;27;20114;-73
2021/12/30 03:59:28;;;;;;;64.40;27.02;;;;;;;2.51;100.00;98835.69;8486005;27;20074;-74
2021/12/30 04:03:29;;;;;;;67.40;27.77;;;;;;;2.56;100.00;98833.03;8483060;27;20047;-74
2021/12/30 04:07:30;;;;;;;59.88;26.73;;;;;;;2.56;100.00;98849.03;8455159;27;20118;-74
2021/12/30 04:11:33;;;;;;;67.65;27.75;;;;;;;2.55;100.00;98831.44;8493391;27;20043;-74
2021/12/30 04:15:34;;;;;;;60.13;27.67;;;;;;;2.57;100.00;98828.50;8481120;27;20092;-74
2021/12/30 04:19:35;;;;;;;65.28;29.45;;;;;;;2.58;100.00;98841.59;8480043;27;20488;-74
2021/12/30 04:23:36;;;;;;;58.85;26.77;;;;;;;2.55;100.00;98852.75;8475082;27;20051;-73
2021/12/30 04:27:37;;;;;;;62.10;27.17;;;;;;;2.63;100.00;98876.25;8481171;27;20044;-74
2021/12/30 04:31:38;;;;;;;63.22;27.88;;;;;;;2.63;100.00;98864.78;8490319;27;20099;-74
2021/12/30 04:35:39;;;;;;;65.60;29.65;;;;;;;2.58;100.00;98846.94;8481516;27;20059;-74
2021/12/30 04:39:41;;;;;;;71.22;30.67;;;;;;;2.48;100.00;98852.22;8498785;27;20051;-74
2021/12/30 04:43:42;;;;;;;70.80;30.50;;;;;;;2.46;100.00;98854.34;8490009;27;20107;-74
2021/12/30 04:47:42;;;;;;;81.32;36.42;;;;;;;2.42;100.00;98859.41;8481263;27;20039;-74
2021/12/30 04:51:43;;;;;;;88.25;42.20;;;;;;;2.43;100.00;98854.88;8497801;27;20429;-73
2021/12/30 04:55:44;;;;;;;78.28;34.08;;;;;;;2.40;100.00;98850.06;8489457;27;20127;-73
2021/12/30 04:59:45;;;;;;;74.68;34.15;;;;;;;2.34;100.00;98851.09;8498034;27;20059;-74
2021/12/30 05:03:46;;;;;;;68.13;31.70;;;;;;;2.31;100.00;98851.63;8489467;27;20043;-74
2021/12/30 05:07:47;;;;;;;64.82;29.83;;;;;;;2.35;100.00;98860.69;8497386;27;20051;-75
2021/12/30 05:11:47;;;;;;;66.13;29.02;;;;;;;2.41;100.00;98872.97;8471008;27;20066;-74
2021/12/30 05:15:48;;;;;;;66.95;29.52;;;;;;;2.45;100.00;98879.38;8474775;27;20044;-74
2021/12/30 05:19:49;;;;;;;65.10;30.63;;;;;;;2.54;100.00;98883.16;8494165;27;20100;-74
2021/12/30 05:23:50;;;;;;;65.88;29.60;;;;;;;2.59;100.00;98896.53;8492184;27;20066;-74
2021/12/30 05:27:51;;;;;;;65.10;29.88;;;;;;;2.59;100.00;98896.53;8485756;27;20035;-74
2021/12/30 05:31:52;;;;;;;66.40;29.20;;;;;;;2.58;100.00;98908.25;8483526;27;20142;-74
2021/12/30 05:35:52;;;;;;;54.92;26.17;;;;;;;2.64;100.00;98904.53;8493005;27;20076;-74
2021/12/30 05:39:53;;;;;;;60.67;25.45;;;;;;;2.64;100.00;98888.53;8488358;27;20050;-74
2021/12/30 05:43:54;;;;;;;51.78;24.35;;;;;;;2.64;100.00;98893.88;8475285;27;20437;-74
2021/12/30 05:47:55;;;;;;;48.42;22.02;;;;;;;2.75;100.00;98906.13;8492137;27;20048;-74
2021/12/30 05:51:56;;;;;;;49.55;22.77;;;;;;;2.74;100.00;98883.22;8479543;27;20493;-74
2021/12/30 05:55:57;;;;;;;54.38;23.35;;;;;;;2.83;100.00;98892.31;8496099;27;20045;-73
2021/12/30 05:59:58;;;;;;;59.47;26.73;;;;;;;2.86;100.00;98881.09;8484347;27;20044;-73
2021/12/30 06:03:59;;;;;;;58.47;26.27;;;;;;;2.88;100.00;98889.66;8473133;27;20383;-74
2021/12/30 06:08:00;;;;;;;52.65;23.73;;;;;;;2.85;100.00;98895.53;8495356;27;20043;-74
2021/12/30 06:12:00;;;;;;;48.08;21.67;;;;;;;2.92;100.00;98896.06;8495860;27;20478;-74
2021/12/30 06:16:01;;;;;;;48.28;22.42;;;;;;;2.93;100.00;98892.31;8475741;27;20096;-74
2021/12/30 06:20:04;;;;;;;40.78;20.73;;;;;;;2.98;100.00;98889.66;8471708;27;20387;-74
2021/12/30 06:24:05;;;;;;;47.60;22.60;;;;;;;3.10;100.00;98912.63;8472155;27;20472;-74
2021/12/30 06:28:06;;;;;;;45.58;21.02;;;;;;;3.09;100.00;98905.69;8475154;27;20089;-74
2021/12/30 06:32:07;;;;;;;50.35;23.15;;;;;;;3.13;100.00;98912.09;8455203;27;20122;-74
2021/12/30 06:36:09;;;;;;;57.38;27.17;;;;;;;3.12;100.00;98927.28;8494739;27;20418;-74
2021/12/30 06:40:12;;;;;;;59.97;29.13;;;;;;;3.03;100.00;98944.09;8491871;27;20043;-73
2021/12/30 06:44:13;;;;;;;54.22;27.20;;;;;;;3.03;100.00;98934.22;8470022;27;20039;-73
2021/12/30 06:48:14;;;;;;;62.47;28.85;;;;;;;3.03;100.00;98938.75;8472568;28;20051;-74
2021/12/30 06:52:15;;;;;;;56.75;26.55;;;;;;;3.03;100.00;98944.09;8486052;27;20035;-73
2021/12/30 06:56:16;;;;;;;58.30;26.08;;;;;;;3.07;100.00;98945.19;8488809;28;20134;-73
2021/12/30 07:00:17;;;;;;;60.40;27.90;;;;;;;3.09;100.00;98951.03;8494294;28;20900;-73
2021/12/30 07:04:18;;;;;;;67.28;30.65;;;;;;;3.05;100.00;98963.31;8469779;28;20047;-73
2021/12/30 07:08:18;;;;;;;69.05;29.52;;;;;;;3.04;100.00;98961.72;8483020;28;20046;-73
2021/12/30 07:12:19;;;;;;;79.82;37.03;;;;;;;2.98;100.00;98969.69;8478098;28;20134;-74
2021/12/30 07:16:20;;;;;;;77.82;32.67;;;;;;;3.00;100.00;98955.31;8412037;28;20055;-73
2021/12/30 07:20:21;;;;;;;87.30;41.47;;;;;;;2.95;100.00;98959.56;8477819;28;20075;-74
2021/12/30 07:24:22;;;;;;;91.13;43.58;;;;;;;2.95;100.00;98954.22;8483052;28;20089;-74
2021/12/30 07:28:22;;;;;;;106.20;46.95;;;;;;;2.92;100.00;98954.75;8469820;28;20040;-74
2021/12/30 07:32:23;;;;;;;82.07;39.33;;;;;;;2.96;100.00;98955.81;8485486;28;20042;-74
2021/12/30 07:36:24;;;;;;;68.43;31.65;;;;;;;3.01;100.00;98956.91;8467856;28;20134;-74
2021/12/30 07:40:24;;;;;;;65.30;32.63;;;;;;;3.10;100.00;98949.97;8469072;28;20100;-73
2021/12/30 07:44:25;;;;;;;63.55;27.27;;;;;;;3.18;100.00;98974.28;8487078;28;20118;-74
2021/12/30 07:48:27;;;;;;;47.63;22.65;;;;;;;3.27;100.00;98966.56;8484874;28;20036;-74
2021/12/30 07:52:27;;;;;;;45.53;19.80;;;;;;;3.37;100.00;98979.94;8478902;28;20147;-73
2021/12/30 07:56:28;;;;;;;27.27;13.98;;;;;;;3.53;100.00;98981.56;8460345;28;20040;-74
2021/12/30 08:00:29;;;;;;;19.85;11.23;;;;;;;3.72;100.00;98974.63;8489500;27;20394;-72
2021/12/30 08:04:30;;;;;;;22.77;12.45;;;;;;;3.86;100.00;98974.88;8495739;27;20538;-73
2021/12/30 08:08:31;;;;;;;19.48;10.00;;;;;;;3.93;100.00;98977.28;8490349;27;20035;-73
2021/12/30 08:12:32;;;;;;;21.10;11.07;;;;;;;3.99;100.00;98981.56;8481161;27;20047;-73
2021/12/30 08:16:33;;;;;;;24.00;12.63;;;;;;;4.04;100.00;98992.22;8485197;27;20047;-74
2021/12/30 08:20:33;;;;;;;24.88;12.73;;;;;;;4.09;100.00;98989.56;8495767;27;20468;-73
2021/12/30 08:24:34;;;;;;;18.85;9.13;;;;;;;4.14;100.00;98993.03;8495276;27;20047;-73
2021/12/30 08:28:35;;;;;;;15.23;7.93;;;;;;;4.20;100.00;98996.50;8460004;27;20043;-74
2021/12/30 08:32:36;;;;;;;15.15;8.18;;;;;;;4.30;100.00;99003.69;8492861;27;20122;-74
2021/12/30 08:36:37;;;;;;;15.55;8.35;;;;;;;4.34;100.00;99002.06;8494547;27;20055;-74
2021/12/30 08:40:38;;;;;;;17.23;8.35;;;;;;;4.40;100.00;99007.16;8494505;27;20512;-74
2021/12/30 08:44:39;;;;;;;17.35;9.38;;;;;;;4.52;100.00;99005.00;8472970;27;20055;-74
2021/12/30 08:48:40;;;;;;;22.10;10.73;;;;;;;4.72;100.00;99003.31;8496859;27;20126;-73
2021/12/30 08:52:43;;;;;;;30.98;11.45;;;;;;;4.72;100.00;99014.03;8486515;27;20406;-74
2021/12/30 08:56:43;;;;;;;47.35;15.98;;;;;;;4.78;100.00;99018.28;8480838;27;20039;-73
2021/12/30 09:00:47;;;;;;;68.35;17.80;;;;;;;4.82;100.00;99019.34;8496887;27;20487;-73
2021/12/30 09:04:48;;;;;;;46.35;19.27;;;;;;;4.95;100.00;99016.09;8488302;27;20040;-74
2021/12/30 09:08:48;;;;;;;58.10;21.52;;;;;;;5.09;100.00;99025.13;8483735;27;20043;-74
2021/12/30 09:12:50;;;;;;;54.25;19.35;;;;;;;5.15;100.00;99024.03;8476800;27;20047;-73
2021/12/30 09:16:52;;;;;;;54.25;20.08;;;;;;;5.26;100.00;99024.78;8479049;27;20059;-74
2021/12/30 09:20:53;;;;;;;55.63;22.00;;;;;;;5.23;100.00;99036.03;8476327;27;20047;-73
2021/12/30 09:24:54;;;;;;;73.35;22.92;;;;;;;5.20;100.00;99032.03;8481025;27;20117;-73
2021/12/30 09:28:55;;;;;;;85.90;24.00;;;;;;;5.24;100.00;99030.41;8487466;27;20059;-74
2021/12/30 09:32:58;;;;;;;98.22;23.58;;;;;;;5.19;100.00;99025.06;8420110;27;20490;-74
2021/12/30 09:36:59;;;;;;;131.68;22.70;;;;;;;5.15;100.00;99018.66;8469320;27;20059;-74
2021/12/30 09:40:59;;;;;;;177.80;24.35;;;;;;;5.18;100.00;99034.19;8486092;27;20070;-74
2021/12/30 09:45:00;;;;;;;152.23;25.20;;;;;;;5.17;100.00;99035.28;8475722;27;20051;-74
2021/12/30 09:49:04;;;;;;;296.83;25.88;;;;;;;5.19;100.00;99034.97;8489100;27;20088;-74
2021/12/30 09:53:05;;;;;;;253.82;25.65;;;;;;;5.30;100.00;99031.16;8464630;27;20043;-74
2021/12/30 09:57:06;;;;;;;114.28;25.75;;;;;;;5.29;100.00;99033.03;8485594;27;20047;-73
2021/12/30 10:01:06;;;;;;;154.43;38.10;;;;;;;5.39;100.00;99024.97;8486212;27;20046;-73
2021/12/30 10:05:11;;;;;;;96.22;34.38;;;;;;;5.58;100.00;99016.28;8474457;27;20111;-73
2021/12/30 10:09:15;;;;;;;84.40;30.77;;;;;;;5.72;100.00;99011.91;8470855;27;20035;-74
2021/12/30 10:13:17;;;;;;;73.70;29.98;;;;;;;5.88;100.00;99010.72;8441021;27;20048;-74
2021/12/30 10:17:24;;;;;;;89.47;29.48;;;;;;;5.93;100.00;99016.84;8482869;27;20043;-74
2021/12/30 10:21:26;;;;;;;79.55;28.63;;;;;;;6.09;100.00;99028.25;8485668;27;20057;-73
2021/12/30 10:25:32;;;;;;;87.22;30.80;;;;;;;6.17;100.00;99030.34;8465468;27;20439;-73
2021/12/30 10:29:44;;;;;;;76.90;29.10;;;;;;;6.31;100.00;99031.28;8470068;27;20044;-75
2021/12/30 10:33:56;;;;;;;69.60;27.60;;;;;;;6.44;100.00;99029.84;8477375;27;20058;-73
2021/12/30 10:38:04;;;;;;;71.30;29.52;;;;;;;6.50;100.00;99028.72;8481141;27;20584;-73
2021/12/30 10:42:04;;;;;;;65.95;28.60;;;;;;;6.51;100.00;99029.47;8463975;27;20047;-74
2021/12/30 10:46:19;;;;;;;67.28;27.65;;;;;;;6.67;100.00;99036.28;8481764;27;20521;-74
2021/12/30 10:50:23;;;;;;;90.82;34.42;;;;;;;6.79;100.00;99036.69;8470116;28;20044;-74
2021/12/30 10:54:31;;;;;;;127.03;42.15;;;;;;;6.76;100.00;99037.28;8491220;28;20051;-74
2021/12/30 10:58:32;;;;;;;85.90;31.55;;;;;;;6.82;100.00;99041.47;8477096;28;20075;-74
2021/12/30 11:02:33;;;;;;;61.55;24.42;;;;;;;6.90;100.00;99032.81;8427561;28;20044;-74
2021/12/30 11:06:34;;;;;;;54.17;24.25;;;;;;;6.91;100.00;99039.78;8432399;28;20043;-74
2021/12/30 11:10:37;;;;;;;86.53;29.85;;;;;;;6.95;100.00;99035.44;8494369;28;20426;-74
2021/12/30 11:14:38;;;;;;;58.15;23.95;;;;;;;7.08;100.00;99034.75;8477599;28;20098;-75
2021/12/30 11:18:41;;;;;;;190.32;84.30;;;;;;;7.12;100.00;99033.09;8458835;28;20130;-75
2021/12/30 11:22:42;;;;;;;100.68;49.58;;;;;;;7.15;100.00;99040.56;8431138;28;20513;-74
2021/12/30 11:26:43;;;;;;;55.88;23.70;;;;;;;7.17;100.00;99043.78;8471058;28;20055;-74
2021/12/30 11:30:43;;;;;;;76.00;28.33;;;;;;;7.23;100.00;99041.81;8494009;28;20150;-74
2021/12/30 11:34:49;;;;;;;66.25;27.38;;;;;;;7.36;100.00;99024.19;8483199;28;20047;-74
2021/12/30 11:38:49;;;;;;;49.80;21.42;;;;;;;7.40;100.00;99041.34;8477776;27;20060;-75
2021/12/30 11:42:57;;;;;;;55.92;22.02;;;;;;;7.44;100.00;99037.00;8476481;27;20048;-75
2021/12/30 11:46:59;;;;;;;55.55;22.25;;;;;;;7.45;100.00;99050.13;8453924;27;20504;-74
2021/12/30 11:51:09;;;;;;;57.25;21.75;;;;;;;7.43;100.00;99030.81;8490858;27;20447;-76
2021/12/30 11:55:42;;;;;;;64.30;25.75;;;;;;;7.41;100.00;99041.03;8477556;27;20138;-77
2021/12/30 11:59:43;;;;;;;64.75;24.55;;;;;;;7.51;100.00;99045.47;8460473;27;20054;-76
2021/12/30 12:03:53;;;;;;;61.25;25.42;;;;;;;7.44;100.00;99047.72;8496826;27;20137;-75
2021/12/30 12:08:05;;;;;;;68.60;26.17;;;;;;;7.49;100.00;99050.34;8490267;27;20039;-76
2021/12/30 12:12:09;;;;;;;78.95;30.42;;;;;;;7.51;100.00;99048.16;8492807;27;20070;-76
2021/12/30 12:16:10;;;;;;;64.88;26.13;;;;;;;7.51;100.00;99064.28;8494058;27;20050;-80
2021/12/30 12:20:18;;;;;;;66.20;25.90;;;;;;;7.45;100.00;99065.47;8471859;27;20043;-76
2021/12/30 12:24:22;;;;;;;52.65;25.77;;;;;;;7.47;100.00;99079.38;8473832;27;20481;-75
2021/12/30 12:28:23;;;;;;;52.80;23.98;;;;;;;7.49;100.00;99071.84;8492726;27;20032;-74
2021/12/30 12:32:38;;;;;;;52.03;24.25;;;;;;;7.54;100.00;99047.59;8485842;27;20088;-74
2021/12/30 12:36:39;;;;;;;50.90;24.02;;;;;;;7.58;100.00;99064.72;8480295;27;20103;-74
2021/12/30 12:40:45;;;;;;;60.08;23.77;;;;;;;7.65;100.00;99054.44;8470915;27;20127;-75
2021/12/30 12:45:24;;;;;;;52.00;21.92;;;;;;;7.68;100.00;99043.09;8407215;27;20130;-74
2021/12/30 12:49:31;;;;;;;49.13;20.67;;;;;;;7.70;100.00;99035.53;8486868;27;20043;-74
2021/12/30 12:53:32;;;;;;;52.28;21.67;;;;;;;7.81;100.00;99031.59;8494586;27;20047;-75
2021/12/30 12:57:33;;;;;;;50.53;21.38;;;;;;;7.90;100.00;99024.47;8490744;27;20039;-76
2021/12/30 13:01:34;;;;;;;51.30;21.50;;;;;;;7.90;100.00;99035.22;8492073;27;20039;-74
2021/12/30 13:05:35;;;;;;;48.20;20.00;;;;;;;7.90;100.00;99024.47;8448106;27;20130;-76
2021/12/30 13:09:36;;;;;;;93.57;32.60;;;;;;;7.86;100.00;99034.22;8494865;27;20039;-74
2021/12/30 13:13:42;;;;;;;49.25;21.60;;;;;;;7.83;100.00;99040.16;8466884;27;20419;-74
2021/12/30 13:17:44;;;;;;;50.25;22.95;;;;;;;7.85;100.00;99043.38;8488017;27;20502;-73
2021/12/30 13:21:48;;;;;;;51.20;20.95;;;;;;;7.82;100.00;99049.34;8485317;27;20498;-76
2021/12/30 13:25:59;;;;;;;45.42;18.38;;;;;;;7.80;100.00;99051.50;8495895;27;20488;-74
2021/12/30 13:30:07;;;;;;;39.67;16.23;;;;;;;7.76;100.00;99055.88;8494853;27;20054;-74
2021/12/30 13:34:07;;;;;;;40.58;15.82;;;;;;;7.67;100.00;99046.84;8476512;27;20050;-75
2021/12/30 13:38:09;;;;;;;51.80;19.90;;;;;;;7.55;100.00;99054.56;8495127;27;20147;-74
2021/12/30 13:42:12;;;;;;;78.63;38.78;;;;;;;7.43;100.00;99051.50;8487315;27;20051;-75
2021/12/30 13:46:16;;;;;;;82.05;39.92;;;;;;;7.25;100.00;99071.06;8485883;27;20048;-74
2021/12/30 13:50:19;;;;;;;58.97;28.98;;;;;;;7.19;100.00;99057.69;8488679;27;20521;-75
2021/12/30 13:54:20;;;;;;;71.85;32.55;;;;;;;7.08;100.00;99056.25;8449764;27;20610;-74
2021/12/30 13:58:29;;;;;;;77.57;31.15;;;;;;;7.01;100.00;99074.59;8461576;27;20486;-74
2021/12/30 14:02:30;;;;;;;87.55;36.97;;;;;;;6.92;100.00;99062.88;8485827;27;20054;-74
2021/12/30 14:06:31;;;;;;;94.05;40.78;;;;;;;6.92;100.00;99062.06;8495012;27;20043;-74
2021/12/30 14:10:56;;;;;;;82.95;37.25;;;;;;;6.90;100.00;99048.94;8487357;27;20057;-74
2021/12/30 14:15:16;;;;;;;79.57;34.83;;;;;;;6.91;100.00;99045.16;8433456;27;20044;-74
2021/12/30 14:19:17;;;;;;;67.70;29.30;;;;;;;6.92;100.00;99041.41;8482367;27;20162;-75
2021/12/30 14:23:31;;;;;;;61.13;26.27;;;;;;;6.89;100.00;99041.94;8486021;27;20478;-74
2021/12/30 14:27:32;;;;;;;69.30;32.45;;;;;;;6.80;100.00;99065.16;8476604;27;20051;-74
2021/12/30 14:31:41;;;;;;;90.43;41.33;;;;;;;6.77;100.00;99060.34;8481499;27;20055;-74
2021/12/30 14:35:42;;;;;;;92.25;38.97;;;;;;;6.68;100.00;99043.25;8485648;27;20047;-75
2021/12/30 14:39:43;;;;;;;77.20;33.75;;;;;;;6.64;100.00;99040.34;8486212;27;20057;-75
2021/12/30 14:44:11;;;;;;;100.25;41.42;;;;;;;6.64;100.00;99050.28;8470172;27;20296;-74
2021/12/30 14:48:11;;;;;;;121.07;50.83;;;;;;;6.65;100.00;99051.88;8488446;27;20455;-74
2021/12/30 14:52:25;;;;;;;140.38;56.10;;;;;;;6.59;100.00;99053.03;8469486;28;20052;-74
2021/12/30 14:56:26;;;;;;;130.85;51.45;;;;;;;6.53;100.00;99070.25;8487048;28;20039;-74
2021/12/30 15:00:29;;;;;;;128.75;51.58;;;;;;;6.50;100.00;99070.81;8472815;28;20051;-75
2021/12/30 15:04:30;;;;;;;156.63;58.20;;;;;;;6.49;100.00;99069.22;8473867;28;20039;-74
2021/12/30 15:08:30;;;;;;;120.35;48.45;;;;;;;6.47;100.00;99082.09;8467395;28;20047;-75
2021/12/30 15:12:35;;;;;;;112.93;41.13;;;;;;;6.46;100.00;99075.13;8486272;27;20044;-75
2021/12/30 15:16:36;;;;;;;90.43;35.47;;;;;;;6.46;100.00;99075.13;8476096;27;20146;-75
2021/12/30 15:20:37;;;;;;;88.80;38.13;;;;;;;6.46;100.00;99080.50;8494092;27;20063;-75
2021/12/30 15:24:38;;;;;;;88.57;38.17;;;;;;;6.46;100.00;99077.81;8492035;27;20421;-74
2021/12/30 15:28:40;;;;;;;102.13;47.53;;;;;;;6.44;100.00;99071.94;8447429;27;20063;-75
2021/12/30 15:32:41;;;;;;;116.20;59.08;;;;;;;6.29;100.00;99076.34;8489503;27;20043;-74
2021/12/30 15:36:42;;;;;;;98.70;48.42;;;;;;;6.27;100.00;99073.16;8475213;27;20062;-75
2021/12/30 15:40:44;;;;;;;87.30;40.60;;;;;;;6.22;100.00;99078.56;8468350;27;20397;-75
2021/12/30 15:44:47;;;;;;;127.85;47.97;;;;;;;6.14;100.00;99068.44;8481669;27;20537;-75
2021/12/30 15:48:48;;;;;;;125.07;47.58;;;;;;;6.10;100.00;99078.13;8430422;27;20054;-74
2021/12/30 15:52:54;;;;;;;125.53;48.53;;;;;;;6.12;100.00;99075.97;8481198;27;20495;-74
2021/12/30 15:56:55;;;;;;;135.25;48.95;;;;;;;6.16;100.00;99077.00;8487542;27;20051;-75
2021/12/30 16:00:56;;;;;;;204.15;75.28;;;;;;;6.17;100.00;99083.97;8486412;27;20438;-74
2021/12/30 16:04:57;;;;;;;133.23;52.95;;;;;;;6.16;100.00;99082.38;8494749;27;20059;-74
2021/12/30 16:08:58;;;;;;;169.50;60.75;;;;;;;6.04;100.00;99075.75;8491614;27;20063;-75
2021/12/30 16:12:59;;;;;;;137.27;55.20;;;;;;;6.11;100.00;99068.19;8475961;27;20234;-76
2021/12/30 16:17:01;;;;;;;119.72;48.22;;;;;;;6.04;100.00;99063.16;8443358;27;20052;-77
2021/12/30 16:21:03;;;;;;;104.15;45.72;;;;;;;6.06;100.00;99063.69;8493848;27;20088;-77
2021/12/30 16:25:05;;;;;;;107.97;46.88;;;;;;;6.00;100.00;99070.16;8495579;27;20039;-76
2021/12/30 16:29:06;;;;;;;113.05;42.35;;;;;;;6.03;100.00;99080.31;8497372;27;20117;-76
2021/12/30 16:33:08;;;;;;;99.07;40.65;;;;;;;6.02;100.00;99070.69;8490146;27;20051;-76
2021/12/30 16:37:09;;;;;;;91.88;39.13;;;;;;;6.01;100.00;99077.13;8494221;27;20532;-75
2021/12/30 16:41:10;;;;;;;94.95;40.15;;;;;;;6.05;100.00;99080.84;8440160;27;20047;-75
2021/12/30 16:45:13;;;;;;;88.63;37.35;;;;;;;6.10;100.00;99083.47;8492871;27;20047;-75
2021/12/30 16:49:18;;;;;;;99.88;41.45;;;;;;;6.12;100.00;99070.59;8495022;27;20075;-74
2021/12/30 16:53:19;;;;;;;110.60;49.75;;;;;;;6.06;100.00;99082.44;8457910;27;20410;-74
2021/12/30 16:57:20;;;;;;;106.13;43.70;;;;;;;5.99;100.00;99075.78;8496316;27;20051;-76
2021/12/30 17:01:21;;;;;;;103.53;42.17;;;;;;;5.99;100.00;99076.59;8474095;27;20386;-75
2021/12/30 17:05:22;;;;;;;101.20;42.65;;;;;;;6.02;100.00;99077.94;8485357;27;20075;-73
2021/12/30 17:09:24;;;;;;;99.15;41.75;;;;;;;6.01;100.00;99074.44;8478805;27;20043;-74
2021/12/30 17:13:25;;;;;;;99.30;42.15;;;;;;;5.90;100.00;99078.28;8488809;27;20122;-81
2021/12/30 17:17:26;;;;;;;107.03;43.30;;;;;;;5.80;100.00;99089.03;8480438;27;20137;-75
2021/12/30 17:21:28;;;;;;;102.50;43.83;;;;;;;5.80;100.00;99081.78;8424491;28;20044;-77
2021/12/30 17:25:29;;;;;;;95.82;44.20;;;;;;;5.83;100.00;99078.53;8488560;27;20039;-74
2021/12/30 17:29:31;;;;;;;101.70;46.30;;;;;;;5.86;100.00;99093.28;8487532;27;20575;-75
2021/12/30 17:33:32;;;;;;;108.57;44.38;;;;;;;5.92;100.00;99092.22;8484485;27;20051;-75
2021/12/30 17:37:33;;;;;;;97.32;40.55;;;;;;;5.91;100.00;99074.50;8485155;27;20051;-75
2021/12/30 17:41:34;;;;;;;84.30;38.05;;;;;;;5.96;100.00;99071.81;8490812;27;20809;-75
2021/12/30 17:45:35;;;;;;;92.88;40.22;;;;;;;5.90;100.00;99078.28;8494847;27;20054;-75
2021/12/30 17:49:36;;;;;;;98.53;41.83;;;;;;;5.93;100.00;99075.03;8452056;27;20054;-74
2021/12/30 17:53:37;;;;;;;103.47;41.90;;;;;;;5.96;100.00;99076.34;8409216;27;20079;-74
2021/12/30 17:57:38;;;;;;;69.18;30.73;;;;;;;5.96;100.00;99082.53;8485608;27;20043;-76
2021/12/30 18:01:39;;;;;;;72.78;34.65;;;;;;;6.01;100.00;99079.81;8475663;27;20452;-74
2021/12/30 18:05:40;;;;;;;76.82;35.55;;;;;;;6.07;100.00;99081.38;8485745;27;20140;-74
2021/12/30 18:09:41;;;;;;;76.32;33.25;;;;;;;6.10;100.00;99075.44;8447336;27;20047;-75
2021/12/30 18:13:42;;;;;;;67.57;31.67;;;;;;;6.14;100.00;99079.16;8484871;27;20396;-74
2021/12/30 18:17:43;;;;;;;49.42;23.50;;;;;;;6.22;100.00;99081.25;8473803;27;20051;-75
2021/12/30 18:21:45;;;;;;;51.55;24.60;;;;;;;6.27;100.00;99077.72;8487121;27;20115;-75
2021/12/30 18:25:46;;;;;;;46.55;22.08;;;;;;;6.32;100.00;99081.16;8489921;27;20039;-74
2021/12/30 18:29:48;;;;;;;52.05;22.33;;;;;;;6.35;100.00;99075.22;8485924;27;20042;-74